Atlantic Enterprise — WDI8007 — position and weather

sailwx.info

Track history (hours):
 
Tides and Currents Weather Stations Pressure Air Temp Water Temp Dewpoint Dewpoint Depression Visibility Wind Speed Wind Dir Waves Ship Positions

Atlantic Enterprise

Owner: Donjon Marine Co., Inc., Hillside, NJ. More information available from US FCC via Universal Licensing System and Coast Guard Vessel Documentation Center.

Last reported at 2018-Jan-18 16:00 UTC. Time now 2018-Jan-18 16:19 UTC.
Position N 41°15' W 072°22'.

Length 40 m; draft 6.1 m.

Type: Tow > 200 m length. MMSI: 367313240.

Date/timePositionNaut miles runAvg speedWind from/ knotsBaromVisibWave heightAir tempDewpointWater temp
2018-Jan-18 16:00N 41°15' W 072°22'3 6.0
2018-Jan-18 15:30N 41°14' W 072°26'4 7.7
2018-Jan-18 15:00N 41°13' W 072°31'4 7.3
2018-Jan-18 14:30N 41°12' W 072°36'4 7.1
2018-Jan-18 14:00N 41°11' W 072°40'2 0.8
2018-Jan-18 11:39N 41°11' W 072°43'1 8.3
2018-Jan-18 11:30N 41°11' W 072°41'4 8.0
2018-Jan-18 11:00N 41°12' W 072°36'4 7.9
2018-Jan-18 10:29N 41°13' W 072°31'3 7.2
2018-Jan-18 10:00N 41°14' W 072°26'3 6.0
2018-Jan-18 09:30N 41°15' W 072°22'0 0.9
2018-Jan-18 09:00N 41°15' W 072°22'1 1.1
2018-Jan-18 08:30N 41°15' W 072°22'0 0.7
2018-Jan-18 08:00N 41°15' W 072°22'0 0.6
2018-Jan-18 07:30N 41°15' W 072°22'2 3.0
2018-Jan-18 07:00N 41°15' W 072°24'3 6.3
2018-Jan-18 06:30N 41°14' W 072°28'4 7.1
2018-Jan-18 06:00N 41°13' W 072°32'4 8.0
2018-Jan-18 05:30N 41°12' W 072°37'9 3.4
2018-Jan-18 02:54N 41°10' W 072°49'4 8.1
2018-Jan-18 02:25N 41°11' W 072°44'4 8.5
2018-Jan-18 02:00N 41°12' W 072°39'4 8.8
2018-Jan-18 01:30N 41°13' W 072°34'4 8.8
2018-Jan-18 01:00N 41°14' W 072°28'5 4.5
2018-Jan-18 00:00N 41°15' W 072°22'0 0.6
2018-Jan-17 23:58N 41°15' W 072°22'  
2018-Jan-12 14:59N 41°13' W 072°31'510.1
2018-Jan-12 14:30N 41°12' W 072°37'5 9.7
2018-Jan-12 14:00N 41°11' W 072°43'2 1.1
2018-Jan-12 12:09N 41°10' W 072°46'1 8.6
2018-Jan-12 11:59N 41°11' W 072°44'4 8.8
2018-Jan-12 11:30N 41°12' W 072°39'5 9.1
2018-Jan-12 11:00N 41°13' W 072°33'4 8.9
2018-Jan-12 10:30N 41°14' W 072°27'3 5.9
2018-Jan-12 10:00N 41°15' W 072°23'1 2.2
2018-Jan-12 09:30N 41°15' W 072°22'1 1.1
2018-Jan-12 09:00N 41°15' W 072°23'1 2.0
2018-Jan-12 08:30N 41°15' W 072°24'4 7.1
2018-Jan-12 08:00N 41°14' W 072°29'4 7.9
2018-Jan-12 07:30N 41°13' W 072°34'4 8.6
2018-Jan-12 07:00N 41°11' W 072°39'5 8.9
2018-Jan-12 06:26N 41°10' W 072°45'1 0.5
2018-Jan-12 04:55N 41°10' W 072°46'3 6.7
2018-Jan-12 04:30N 41°11' W 072°43'3 6.7
2018-Jan-12 04:00N 41°12' W 072°39'3 6.4
2018-Jan-12 03:30N 41°13' W 072°35'3 6.4
2018-Jan-12 02:59N 41°13' W 072°30'3 6.1
2018-Jan-12 02:30N 41°14' W 072°26'3 6.0
2018-Jan-12 02:00N 41°15' W 072°22'1 1.3
2018-Jan-12 01:30N 41°15' W 072°22'0 0.3
2018-Jan-12 01:00N 41°15' W 072°22'0 0.0
2018-Jan-12 00:30N 41°15' W 072°22'0 0.0
2018-Jan-12 00:00N 41°15' W 072°22'0 0.0
2018-Jan-11 23:30N 41°15' W 072°22'0 0.0
2018-Jan-11 23:00N 41°15' W 072°22'0 0.0
2018-Jan-11 22:30N 41°15' W 072°22'0 0.0
2018-Jan-11 22:00N 41°15' W 072°22'0 0.0
2018-Jan-11 21:30N 41°15' W 072°22'0 0.0
2018-Jan-11 21:00N 41°15' W 072°22'0 0.0
2018-Jan-11 20:30N 41°15' W 072°22'0 0.0
2018-Jan-11 20:00N 41°15' W 072°22'1 2.0
2018-Jan-11 19:30N 41°15' W 072°23'3 5.1
2018-Jan-11 19:00N 41°14' W 072°27'4 8.5
2018-Jan-11 18:30N 41°13' W 072°32'5 9.1
2018-Jan-11 18:00N 41°12' W 072°38'4 1.9
2018-Jan-11 15:42N 41°11' W 072°43'1 7.3
2018-Jan-11 15:30N 41°11' W 072°42'4 7.3
2018-Jan-11 15:00N 41°12' W 072°37'4 7.1
2018-Jan-11 14:30N 41°13' W 072°33'4 7.1
2018-Jan-11 14:00N 41°14' W 072°28'3 6.8
2018-Jan-11 13:30N 41°14' W 072°23'1 2.9
2018-Jan-11 13:00N 41°15' W 072°22'0 0.4
2018-Jan-11 12:30N 41°15' W 072°22'0 0.3
2018-Jan-11 12:00N 41°15' W 072°22'0 0.1
2018-Jan-11 11:31N 41°15' W 072°22'1 1.9
2018-Jan-11 11:01N 41°15' W 072°23'1 1.8
2018-Jan-11 10:30N 41°14' W 072°24'3 6.3
2018-Jan-11 10:00N 41°14' W 072°28'3 6.8
2018-Jan-11 09:30N 41°13' W 072°33'4 7.1
2018-Jan-11 09:00N 41°12' W 072°37'4 7.3
2018-Jan-11 08:30N 41°11' W 072°42'4 7.3
2018-Jan-11 08:00N 41°10' W 072°47'4 3.9
2018-Jan-11 07:02N 41°09' W 072°51'0 1.1
2018-Jan-11 07:00N 41°09' W 072°52'2 4.2
2018-Jan-11 06:27N 41°10' W 072°48'3 7.3
2018-Jan-11 06:00N 41°11' W 072°44'4 7.9
2018-Jan-11 05:30N 41°11' W 072°39'4 7.7
2018-Jan-11 05:00N 41°13' W 072°34'4 7.4
2018-Jan-11 04:30N 41°14' W 072°30'4 7.3
2018-Jan-11 04:00N 41°14' W 072°25'2 4.0
2018-Jan-11 03:30N 41°15' W 072°22'1 1.1
2018-Jan-11 03:00N 41°15' W 072°22'0 0.1
2018-Jan-11 02:30N 41°15' W 072°22'0 0.0
2018-Jan-11 02:00N 41°15' W 072°22'0 0.0
2018-Jan-11 01:30N 41°15' W 072°22'0 0.0
2018-Jan-11 01:00N 41°15' W 072°22'0 0.0
2018-Jan-11 00:30N 41°15' W 072°22'0 0.0
2018-Jan-11 00:00N 41°15' W 072°22'0 0.0
2018-Jan-10 23:29N 41°15' W 072°22'1 1.2
2018-Jan-10 23:00N 41°15' W 072°22'3 5.6
2018-Jan-10 22:30N 41°14' W 072°26'4 7.5
2018-Jan-10 22:00N 41°13' W 072°31'4 7.0
2018-Jan-10 21:30N 41°12' W 072°35'4 7.1
2018-Jan-10 21:00N 41°11' W 072°40'4 8.5
2018-Jan-10 20:30N 41°10' W 072°45'5 7.0
2018-Jan-10 19:46N 41°09' W 072°52'2 4.0
2018-Jan-10 19:22N 41°10' W 072°49'3 8.7
2018-Jan-10 19:00N 41°10' W 072°45'4 8.5
2018-Jan-10 18:30N 41°11' W 072°40'4 8.4
2018-Jan-10 18:00N 41°12' W 072°35'4 8.4
2018-Jan-10 17:30N 41°14' W 072°29'4 8.1
2018-Jan-10 17:00N 41°14' W 072°24'2 3.3
2018-Jan-10 16:30N 41°15' W 072°22'0 0.2
2018-Jan-10 16:00N 41°15' W 072°22'0 0.0
2018-Jan-10 15:30N 41°15' W 072°22'0 0.0
2018-Jan-10 15:00N 41°15' W 072°22'0 0.0
2018-Jan-10 14:30N 41°15' W 072°22'0 0.0
2018-Jan-10 14:00N 41°15' W 072°22'  
Track history (hours):
 
Tides and Currents Weather Stations Pressure Air Temp Water Temp Dewpoint Dewpoint Depression Visibility Wind Speed Wind Dir Waves Ship Positions

Atlantic Enterprise

Owner: Donjon Marine Co., Inc., Hillside, NJ. More information available from US FCC via Universal Licensing System and Coast Guard Vessel Documentation Center.

Last reported at 2018-Jan-18 16:00 UTC. Time now 2018-Jan-18 16:19 UTC.
Position N 41°15' W 072°22'.

Length 40 m; draft 6.1 m.

Type: Tow > 200 m length. MMSI: 367313240.

Date/timePositionNaut miles runAvg speedWind from/ knotsBaromVisibWave heightAir tempDewpointWater temp
2018-Jan-18 16:00N 41°15' W 072°22'3 6.0
2018-Jan-18 15:30N 41°14' W 072°26'4 7.7
2018-Jan-18 15:00N 41°13' W 072°31'4 7.3
2018-Jan-18 14:30N 41°12' W 072°36'4 7.1
2018-Jan-18 14:00N 41°11' W 072°40'2 0.8
2018-Jan-18 11:39N 41°11' W 072°43'1 8.3
2018-Jan-18 11:30N 41°11' W 072°41'4 8.0
2018-Jan-18 11:00N 41°12' W 072°36'4 7.9
2018-Jan-18 10:29N 41°13' W 072°31'3 7.2
2018-Jan-18 10:00N 41°14' W 072°26'3 6.0
2018-Jan-18 09:30N 41°15' W 072°22'0 0.9
2018-Jan-18 09:00N 41°15' W 072°22'1 1.1
2018-Jan-18 08:30N 41°15' W 072°22'0 0.7
2018-Jan-18 08:00N 41°15' W 072°22'0 0.6
2018-Jan-18 07:30N 41°15' W 072°22'2 3.0
2018-Jan-18 07:00N 41°15' W 072°24'3 6.3
2018-Jan-18 06:30N 41°14' W 072°28'4 7.1
2018-Jan-18 06:00N 41°13' W 072°32'4 8.0
2018-Jan-18 05:30N 41°12' W 072°37'9 3.4
2018-Jan-18 02:54N 41°10' W 072°49'4 8.1
2018-Jan-18 02:25N 41°11' W 072°44'4 8.5
2018-Jan-18 02:00N 41°12' W 072°39'4 8.8
2018-Jan-18 01:30N 41°13' W 072°34'4 8.8
2018-Jan-18 01:00N 41°14' W 072°28'5 4.5
2018-Jan-18 00:00N 41°15' W 072°22'0 0.6
2018-Jan-17 23:58N 41°15' W 072°22'  
2018-Jan-12 14:59N 41°13' W 072°31'510.1
2018-Jan-12 14:30N 41°12' W 072°37'5 9.7
2018-Jan-12 14:00N 41°11' W 072°43'2 1.1
2018-Jan-12 12:09N 41°10' W 072°46'1 8.6
2018-Jan-12 11:59N 41°11' W 072°44'4 8.8
2018-Jan-12 11:30N 41°12' W 072°39'5 9.1
2018-Jan-12 11:00N 41°13' W 072°33'4 8.9
2018-Jan-12 10:30N 41°14' W 072°27'3 5.9
2018-Jan-12 10:00N 41°15' W 072°23'1 2.2
2018-Jan-12 09:30N 41°15' W 072°22'1 1.1
2018-Jan-12 09:00N 41°15' W 072°23'1 2.0
2018-Jan-12 08:30N 41°15' W 072°24'4 7.1
2018-Jan-12 08:00N 41°14' W 072°29'4 7.9
2018-Jan-12 07:30N 41°13' W 072°34'4 8.6
2018-Jan-12 07:00N 41°11' W 072°39'5 8.9
2018-Jan-12 06:26N 41°10' W 072°45'1 0.5
2018-Jan-12 04:55N 41°10' W 072°46'3 6.7
2018-Jan-12 04:30N 41°11' W 072°43'3 6.7
2018-Jan-12 04:00N 41°12' W 072°39'3 6.4
2018-Jan-12 03:30N 41°13' W 072°35'3 6.4
2018-Jan-12 02:59N 41°13' W 072°30'3 6.1
2018-Jan-12 02:30N 41°14' W 072°26'3 6.0
2018-Jan-12 02:00N 41°15' W 072°22'1 1.3
2018-Jan-12 01:30N 41°15' W 072°22'0 0.3
2018-Jan-12 01:00N 41°15' W 072°22'0 0.0
2018-Jan-12 00:30N 41°15' W 072°22'0 0.0
2018-Jan-12 00:00N 41°15' W 072°22'0 0.0
2018-Jan-11 23:30N 41°15' W 072°22'0 0.0
2018-Jan-11 23:00N 41°15' W 072°22'0 0.0
2018-Jan-11 22:30N 41°15' W 072°22'0 0.0
2018-Jan-11 22:00N 41°15' W 072°22'0 0.0
2018-Jan-11 21:30N 41°15' W 072°22'0 0.0
2018-Jan-11 21:00N 41°15' W 072°22'0 0.0
2018-Jan-11 20:30N 41°15' W 072°22'0 0.0
2018-Jan-11 20:00N 41°15' W 072°22'1 2.0
2018-Jan-11 19:30N 41°15' W 072°23'3 5.1
2018-Jan-11 19:00N 41°14' W 072°27'4 8.5
2018-Jan-11 18:30N 41°13' W 072°32'5 9.1
2018-Jan-11 18:00N 41°12' W 072°38'4 1.9
2018-Jan-11 15:42N 41°11' W 072°43'1 7.3
2018-Jan-11 15:30N 41°11' W 072°42'4 7.3
2018-Jan-11 15:00N 41°12' W 072°37'4 7.1
2018-Jan-11 14:30N 41°13' W 072°33'4 7.1
2018-Jan-11 14:00N 41°14' W 072°28'3 6.8
2018-Jan-11 13:30N 41°14' W 072°23'1 2.9
2018-Jan-11 13:00N 41°15' W 072°22'0 0.4
2018-Jan-11 12:30N 41°15' W 072°22'0 0.3
2018-Jan-11 12:00N 41°15' W 072°22'0 0.1
2018-Jan-11 11:31N 41°15' W 072°22'1 1.9
2018-Jan-11 11:01N 41°15' W 072°23'1 1.8
2018-Jan-11 10:30N 41°14' W 072°24'3 6.3
2018-Jan-11 10:00N 41°14' W 072°28'3 6.8
2018-Jan-11 09:30N 41°13' W 072°33'4 7.1
2018-Jan-11 09:00N 41°12' W 072°37'4 7.3
2018-Jan-11 08:30N 41°11' W 072°42'4 7.3
2018-Jan-11 08:00N 41°10' W 072°47'4 3.9
2018-Jan-11 07:02N 41°09' W 072°51'0 1.1
2018-Jan-11 07:00N 41°09' W 072°52'2 4.2
2018-Jan-11 06:27N 41°10' W 072°48'3 7.3
2018-Jan-11 06:00N 41°11' W 072°44'4 7.9
2018-Jan-11 05:30N 41°11' W 072°39'4 7.7
2018-Jan-11 05:00N 41°13' W 072°34'4 7.4
2018-Jan-11 04:30N 41°14' W 072°30'4 7.3
2018-Jan-11 04:00N 41°14' W 072°25'2 4.0
2018-Jan-11 03:30N 41°15' W 072°22'1 1.1
2018-Jan-11 03:00N 41°15' W 072°22'0 0.1
2018-Jan-11 02:30N 41°15' W 072°22'0 0.0
2018-Jan-11 02:00N 41°15' W 072°22'0 0.0
2018-Jan-11 01:30N 41°15' W 072°22'0 0.0
2018-Jan-11 01:00N 41°15' W 072°22'0 0.0
2018-Jan-11 00:30N 41°15' W 072°22'0 0.0
2018-Jan-11 00:00N 41°15' W 072°22'0 0.0
2018-Jan-10 23:29N 41°15' W 072°22'1 1.2
2018-Jan-10 23:00N 41°15' W 072°22'3 5.6
2018-Jan-10 22:30N 41°14' W 072°26'4 7.5
2018-Jan-10 22:00N 41°13' W 072°31'4 7.0
2018-Jan-10 21:30N 41°12' W 072°35'4 7.1
2018-Jan-10 21:00N 41°11' W 072°40'4 8.5
2018-Jan-10 20:30N 41°10' W 072°45'5 7.0
2018-Jan-10 19:46N 41°09' W 072°52'2 4.0
2018-Jan-10 19:22N 41°10' W 072°49'3 8.7
2018-Jan-10 19:00N 41°10' W 072°45'4 8.5
2018-Jan-10 18:30N 41°11' W 072°40'4 8.4
2018-Jan-10 18:00N 41°12' W 072°35'4 8.4
2018-Jan-10 17:30N 41°14' W 072°29'4 8.1
2018-Jan-10 17:00N 41°14' W 072°24'2 3.3
2018-Jan-10 16:30N 41°15' W 072°22'0 0.2
2018-Jan-10 16:00N 41°15' W 072°22'0 0.0
2018-Jan-10 15:30N 41°15' W 072°22'0 0.0
2018-Jan-10 15:00N 41°15' W 072°22'0 0.0
2018-Jan-10 14:30N 41°15' W 072°22'0 0.0
2018-Jan-10 14:00N 41°15' W 072°22'  

Dump ship's entire track history